This is the latest recevied weather packets stored in our database for station/object HA5CD-6. If no packets are shown the sender has not sent any weather packets the latest 10 day(s).
| Time | Temp. | Humidity | Pressure | Rain* | Wind** | Luminosity | Snow |
|---|---|---|---|---|---|---|---|
| 1777514448 | 5° C | 41% | 1004 hPa | - | - | - | - |
| 1777513848 | 5° C | 42% | 1004 hPa | - | - | - | - |
| 1777513248 | 5.56° C | 40% | 1004 hPa | - | - | - | - |
| 1777512648 | 5.56° C | 40% | 1004 hPa | - | - | - | - |
| 1777512048 | 5.56° C | 38% | 1004 hPa | - | - | - | - |
| 1777511448 | 6.11° C | 38% | 1004 hPa | - | - | - | - |
| 1777510848 | 6.11° C | 37% | 1003 hPa | - | - | - | - |
| 1777510248 | 6.67° C | 36% | 1003 hPa | - | - | - | - |
| 1777509047 | 6.67° C | 35% | 1003 hPa | - | - | - | - |
| 1777508447 | 7.22° C | 34% | 1003 hPa | - | - | - | - |
| 1777507847 | 7.22° C | 33% | 1003 hPa | - | - | - | - |
| 1777507246 | 7.78° C | 33% | 1003 hPa | - | - | - | - |
| 1777506046 | 8.33° C | 32% | 1003 hPa | - | - | - | - |
| 1777501245 | 8.89° C | 36% | 1002 hPa | - | - | - | - |
| 1777500645 | 8.89° C | 37% | 1002 hPa | - | - | - | - |
| 1777500045 | 8.89° C | 38% | 1002 hPa | - | - | - | - |
| 1777495244 | 9.44° C | 36% | 1002 hPa | - | - | - | - |
| 1777492242 | 9.44° C | 35% | 1001 hPa | - | - | - | - |
| 1777480239 | 23.89° C | 18% | 996 hPa | - | - | - | - |
| 1777479639 | 23.33° C | 19% | 996 hPa | - | - | - | - |
| 1777473638 | 17.78° C | 24% | 997 hPa | - | - | - | - |
| 1777473038 | 18.33° C | 23% | 997 hPa | - | - | - | - |
| 1777469438 | 23.89° C | 17% | 997 hPa | - | - | - | - |
| 1777468237 | 23.89° C | 18% | 997 hPa | - | - | - | - |
| 1777465836 | 21.67° C | 20% | 997 hPa | - | - | - | - |
* Rain since midnight (hover to see other rain measurements)
** Current wind speed in m/s (hover to see current wind gust speed)